createdAt,value
2022-11-25T00:01:32.599Z,0.90
2022-11-25T00:04:00.627Z,0.90
2022-11-25T00:06:34.687Z,0.98
2022-11-25T00:09:09.905Z,0.70
2022-11-25T00:11:42.723Z,0.95
2022-11-25T00:14:15.338Z,1.10
2022-11-25T00:16:46.786Z,0.90
2022-11-25T00:19:15.551Z,1.17
2022-11-25T00:21:45.283Z,1.13
2022-11-25T00:24:16.163Z,0.82
2022-11-25T00:26:43.348Z,1.02
2022-11-25T00:29:14.160Z,0.80
2022-11-25T00:31:41.337Z,0.90
2022-11-25T00:34:13.457Z,1.08
2022-11-25T00:36:40.652Z,0.80
2022-11-25T00:39:16.762Z,1.08
2022-11-25T00:42:03.444Z,1.15
2022-11-25T00:44:37.186Z,1.02
2022-11-25T00:47:15.483Z,0.90
2022-11-25T00:49:48.996Z,0.98
2022-11-25T00:52:20.617Z,1.00
2022-11-25T00:54:48.867Z,0.77
2022-11-25T00:57:18.505Z,0.90
2022-11-25T00:59:45.696Z,0.90
2022-11-25T01:02:14.952Z,0.95
2022-11-25T01:04:42.077Z,1.00
2022-11-25T01:07:09.136Z,1.00
2022-11-25T01:09:36.149Z,0.85
2022-11-25T01:12:03.454Z,0.82
2022-11-25T01:14:30.358Z,1.00
2022-11-25T01:16:57.434Z,0.90
2022-11-25T01:19:24.556Z,0.93
2022-11-25T01:21:51.532Z,0.95
2022-11-25T01:24:18.948Z,0.95
2022-11-25T01:26:46.394Z,0.70
2022-11-25T01:29:18.328Z,1.10
2022-11-25T01:31:48.978Z,1.00
2022-11-25T01:34:21.355Z,0.90
2022-11-25T01:36:49.311Z,0.80
2022-11-25T01:39:27.086Z,0.90
2022-11-25T01:41:58.926Z,1.00
2022-11-25T01:44:31.409Z,0.75
2022-11-25T01:47:07.061Z,0.77
2022-11-25T01:49:48.528Z,0.93
2022-11-25T01:52:29.787Z,0.90
2022-11-25T01:55:11.587Z,0.80
2022-11-25T01:57:45.883Z,0.90
2022-11-25T02:00:13.458Z,0.93
2022-11-25T02:02:40.672Z,0.82
2022-11-25T02:05:13.233Z,1.00
2022-11-25T02:07:45.976Z,1.00
2022-11-25T02:10:19.411Z,1.00
2022-11-25T02:12:47.961Z,0.70
2022-11-25T02:15:16.965Z,0.75
2022-11-25T02:17:45.279Z,0.80
2022-11-25T02:20:16.651Z,1.15
2022-11-25T02:23:17.514Z,0.88
2022-11-25T02:25:47.621Z,0.90
2022-11-25T02:28:19.642Z,1.08
2022-11-25T02:30:47.713Z,0.80
2022-11-25T02:33:16.321Z,0.93
2022-11-25T02:35:50.001Z,0.90
2022-11-25T02:38:23.924Z,1.00
2022-11-25T02:41:14.486Z,0.80
2022-11-25T02:43:41.827Z,0.70
2022-11-25T02:46:21.591Z,0.80
2022-11-25T02:49:08.534Z,0.80
2022-11-25T02:51:38.143Z,1.00
2022-11-25T02:54:06.376Z,0.90
2022-11-25T02:56:36.113Z,0.63
2022-11-25T02:59:03.786Z,0.77
2022-11-25T03:01:32.117Z,0.90
2022-11-25T03:03:59.549Z,0.90
2022-11-25T03:06:26.911Z,0.90
2022-11-25T03:08:54.036Z,0.90
2022-11-25T03:11:21.051Z,0.70
2022-11-25T03:13:47.930Z,1.00
2022-11-25T03:16:14.786Z,0.80
2022-11-25T03:18:41.799Z,0.90
2022-11-25T03:21:08.709Z,1.00
2022-11-25T03:23:35.581Z,0.85
2022-11-25T03:26:07.132Z,0.80
2022-11-25T03:28:34.056Z,1.05
2022-11-25T03:31:00.959Z,0.75
2022-11-25T03:33:27.915Z,0.80
2022-11-25T03:35:54.760Z,0.80
2022-11-25T03:38:21.738Z,0.80
2022-11-25T03:40:49.365Z,0.88
2022-11-25T03:43:16.331Z,0.90
2022-11-25T03:45:43.311Z,0.80
2022-11-25T03:48:12.810Z,1.00
2022-11-25T03:50:39.714Z,0.70
2022-11-25T03:53:06.595Z,0.77
2022-11-25T03:55:33.525Z,0.80
2022-11-25T03:58:00.566Z,1.10
2022-11-25T04:00:27.510Z,0.88
2022-11-25T04:02:54.428Z,0.80
2022-11-25T04:05:21.393Z,0.90
2022-11-25T04:07:49.023Z,0.73
2022-11-25T04:10:17.417Z,0.90
2022-11-25T04:12:47.154Z,0.63
2022-11-25T04:15:16.511Z,0.60
2022-11-25T04:17:43.737Z,0.65
2022-11-25T04:20:12.201Z,0.75
2022-11-25T04:22:39.143Z,0.85
2022-11-25T04:25:07.456Z,0.70
2022-11-25T04:27:34.322Z,0.82
2022-11-25T04:30:01.279Z,0.70
2022-11-25T04:32:28.125Z,0.65
2022-11-25T04:34:55.101Z,1.00
2022-11-25T04:37:22.101Z,1.10
2022-11-25T04:39:49.188Z,1.00
2022-11-25T04:42:31.525Z,0.93
2022-11-25T04:45:21.593Z,0.85
2022-11-25T04:47:46.812Z,0.70
2022-11-25T04:50:18.996Z,0.88
2022-11-25T04:52:46.075Z,0.80
2022-11-25T04:55:13.179Z,0.70
2022-11-25T04:57:40.425Z,0.75
2022-11-25T05:00:09.500Z,0.75
2022-11-25T05:02:36.922Z,0.80
2022-11-25T05:05:07.246Z,0.90
2022-11-25T05:07:34.271Z,0.80
2022-11-25T05:10:01.389Z,0.85
2022-11-25T05:12:29.664Z,0.90
2022-11-25T05:14:57.483Z,0.90
2022-11-25T05:17:29.196Z,0.68
2022-11-25T05:19:56.499Z,0.80
2022-11-25T05:22:30.071Z,0.82
2022-11-25T05:24:57.564Z,0.80
2022-11-25T05:27:25.683Z,0.80
2022-11-25T05:29:56.012Z,0.90
2022-11-25T05:32:23.879Z,0.80
2022-11-25T05:34:50.848Z,0.73
2022-11-25T05:37:22.698Z,0.80
2022-11-25T05:39:51.423Z,0.75
2022-11-25T05:42:18.951Z,0.70
2022-11-25T05:44:45.871Z,0.80
2022-11-25T05:47:12.853Z,1.23
2022-11-25T05:49:39.743Z,0.70
2022-11-25T05:52:06.634Z,0.80
2022-11-25T05:54:33.675Z,0.90
2022-11-25T05:57:00.669Z,0.88
2022-11-25T05:59:27.533Z,0.80
2022-11-25T06:01:54.639Z,0.80
2022-11-25T06:04:21.575Z,1.02
2022-11-25T06:06:48.747Z,1.00
2022-11-25T06:09:15.591Z,0.80
2022-11-25T06:11:42.542Z,0.80
2022-11-25T06:14:10.027Z,0.65
2022-11-25T06:16:37.098Z,0.90
2022-11-25T06:19:06.657Z,1.10
2022-11-25T06:21:33.725Z,0.80
2022-11-25T06:24:01.145Z,0.93
2022-11-25T06:26:28.297Z,0.80
2022-11-25T06:28:56.453Z,1.02
2022-11-25T06:31:26.433Z,0.70
2022-11-25T06:33:54.427Z,0.90
2022-11-25T06:36:23.016Z,0.90
2022-11-25T06:38:53.526Z,0.65
2022-11-25T06:41:22.284Z,1.15
2022-11-25T06:43:49.761Z,0.80
2022-11-25T06:46:25.227Z,0.88
2022-11-25T06:48:53.959Z,0.88
2022-11-25T06:51:21.068Z,0.80
2022-11-25T06:53:48.033Z,0.75
2022-11-25T06:56:19.460Z,0.68
2022-11-25T06:58:47.902Z,0.80
2022-11-25T07:01:24.390Z,0.75
2022-11-25T07:04:03.857Z,0.90
2022-11-25T07:06:32.468Z,0.80
2022-11-25T07:08:59.699Z,0.70
2022-11-25T07:11:31.073Z,0.90
2022-11-25T07:14:01.196Z,0.88
2022-11-25T07:16:30.566Z,0.93
2022-11-25T07:19:02.020Z,0.65
2022-11-25T07:21:32.184Z,0.95
2022-11-25T07:24:02.065Z,1.10
2022-11-25T07:26:33.477Z,0.80
2022-11-25T07:29:03.838Z,0.82
2022-11-25T07:31:34.732Z,1.20
2022-11-25T07:34:07.438Z,1.13
2022-11-25T07:36:41.347Z,1.02
2022-11-25T07:39:17.293Z,1.15
2022-11-25T07:41:44.425Z,1.00
2022-11-25T07:44:14.323Z,1.10
2022-11-25T07:46:48.294Z,0.80
2022-11-25T07:49:22.519Z,1.10
2022-11-25T07:51:53.717Z,1.05
2022-11-25T07:54:22.364Z,1.27
2022-11-25T07:56:50.831Z,1.30
2022-11-25T07:59:21.446Z,1.10
2022-11-25T08:01:54.006Z,1.25
2022-11-25T08:04:21.788Z,1.15
2022-11-25T08:06:52.055Z,1.50
2022-11-25T08:09:23.873Z,1.98
2022-11-25T08:11:51.987Z,1.27
2022-11-25T08:14:19.811Z,1.40
2022-11-25T08:16:49.470Z,1.80
2022-11-25T08:19:17.654Z,1.30
2022-11-25T08:21:48.008Z,1.40
2022-11-25T08:24:20.998Z,1.30
2022-11-25T08:26:49.266Z,1.00
2022-11-25T08:29:19.253Z,1.02
2022-11-25T08:31:46.738Z,1.10
2022-11-25T08:34:21.571Z,1.20
2022-11-25T08:36:49.204Z,1.02
2022-11-25T08:42:06.981Z,1.40
2022-11-25T08:44:39.416Z,1.00
2022-11-25T08:47:06.501Z,1.15
2022-11-25T08:49:39.129Z,1.23
2022-11-25T08:52:08.715Z,1.10
2022-11-25T08:54:35.993Z,0.90
2022-11-25T08:57:03.011Z,1.10
2022-11-25T08:59:29.930Z,1.20
2022-11-25T09:01:56.929Z,1.20
2022-11-25T09:04:23.881Z,1.00
2022-11-25T09:06:50.979Z,0.95
2022-11-25T09:09:18.060Z,1.30
2022-11-25T09:11:45.242Z,1.00
2022-11-25T09:14:12.427Z,1.30
2022-11-25T09:16:42.226Z,1.00
2022-11-25T09:19:09.199Z,1.00
2022-11-25T09:21:36.337Z,0.93
2022-11-25T09:24:03.523Z,1.00
2022-11-25T09:26:37.404Z,1.00
2022-11-25T09:29:04.294Z,1.30
2022-11-25T09:31:31.633Z,1.48
2022-11-25T09:33:58.674Z,1.58
2022-11-25T09:36:25.628Z,1.50
2022-11-25T09:38:53.169Z,1.50
2022-11-25T09:42:09.791Z,1.67
2022-11-25T09:45:12.048Z,1.10
2022-11-25T09:48:38.435Z,1.38
2022-11-25T09:51:21.541Z,1.30
2022-11-25T09:54:02.737Z,1.30
2022-11-25T09:56:45.124Z,1.40
2022-11-25T09:59:31.994Z,1.30
2022-11-25T10:02:11.489Z,1.40
2022-11-25T10:04:48.187Z,1.40
2022-11-25T10:07:34.794Z,1.20
2022-11-25T10:10:05.981Z,1.45
2022-11-25T10:12:38.832Z,1.10
2022-11-25T10:15:19.009Z,1.20
2022-11-25T10:17:53.667Z,1.20
2022-11-25T10:20:34.219Z,1.20
2022-11-25T10:23:15.114Z,1.20
2022-11-25T10:25:55.867Z,1.38
2022-11-25T10:28:30.477Z,1.00
2022-11-25T10:31:43.043Z,1.70
2022-11-25T10:34:31.862Z,1.08
2022-11-25T10:37:03.835Z,1.33
2022-11-25T10:39:35.177Z,1.15
2022-11-25T10:42:09.655Z,1.25
2022-11-25T10:44:40.424Z,1.40
2022-11-25T10:47:50.279Z,1.63
2022-11-25T10:50:36.519Z,1.40
2022-11-25T10:53:16.629Z,1.63
2022-11-25T10:56:18.743Z,1.20
2022-11-25T10:58:48.255Z,1.45
2022-11-25T11:01:22.896Z,1.52
2022-11-25T11:04:05.589Z,1.40
2022-11-25T11:06:45.360Z,1.50
2022-11-25T11:09:36.071Z,1.20
2022-11-25T11:12:27.136Z,1.20
2022-11-25T11:15:15.868Z,1.23
2022-11-25T11:17:42.852Z,1.48
2022-11-25T11:20:09.886Z,1.02
2022-11-25T11:23:08.944Z,1.10
2022-11-25T11:25:40.159Z,1.20
2022-11-25T11:28:39.381Z,1.23
2022-11-25T11:31:23.160Z,1.25
2022-11-25T11:34:48.076Z,1.23
2022-11-25T11:37:46.079Z,0.95
2022-11-25T11:40:42.108Z,1.30
2022-11-25T11:43:30.070Z,1.40
2022-11-25T11:46:48.598Z,1.20
2022-11-25T11:49:30.216Z,1.40
2022-11-25T11:52:21.079Z,1.10
2022-11-25T11:55:03.461Z,1.00
2022-11-25T11:57:57.113Z,1.00
2022-11-25T12:00:25.663Z,1.25
2022-11-25T12:03:10.386Z,1.08
2022-11-25T12:05:40.259Z,1.55
2022-11-25T12:08:24.523Z,1.20
2022-11-25T12:11:03.188Z,1.30
2022-11-25T12:14:00.855Z,1.20
2022-11-25T12:16:47.328Z,1.25
2022-11-25T12:19:44.425Z,1.35
2022-11-25T12:22:36.525Z,1.20
2022-11-25T12:25:19.618Z,1.20
2022-11-25T12:28:13.212Z,1.20
2022-11-25T12:31:17.580Z,0.93
2022-11-25T12:34:25.446Z,1.00
2022-11-25T12:36:58.788Z,1.10
2022-11-25T12:39:44.722Z,1.00
2022-11-25T12:42:24.185Z,0.93
2022-11-25T12:45:05.005Z,1.00
2022-11-25T12:47:32.591Z,1.10
2022-11-25T12:50:00.342Z,1.13
2022-11-25T12:52:54.279Z,1.10
2022-11-25T12:55:27.668Z,1.02
2022-11-25T12:58:39.592Z,1.00
2022-11-25T13:01:15.511Z,1.05
2022-11-25T13:03:51.307Z,1.00
2022-11-25T13:06:42.908Z,1.10
2022-11-25T13:09:09.715Z,0.88
2022-11-25T13:11:57.036Z,1.20
2022-11-25T13:14:58.697Z,1.60
2022-11-25T13:17:29.075Z,1.50
2022-11-25T13:20:36.323Z,1.50
2022-11-25T13:23:26.776Z,1.35
2022-11-25T13:26:34.115Z,1.23
2022-11-25T13:29:26.642Z,2.15
2022-11-25T13:32:38.291Z,1.77
2022-11-25T13:35:25.887Z,1.98
2022-11-25T13:37:53.513Z,1.73
2022-11-25T13:40:23.419Z,2.15
2022-11-25T13:42:52.794Z,2.53
2022-11-25T13:45:42.566Z,2.03
2022-11-25T13:48:30.302Z,2.47
2022-11-25T13:51:23.546Z,2.63
2022-11-25T13:54:02.006Z,2.03
2022-11-25T13:56:36.182Z,2.47
2022-11-25T13:59:12.170Z,2.33
2022-11-25T14:01:51.649Z,2.20
2022-11-25T14:05:11.407Z,2.30
2022-11-25T14:08:19.782Z,2.05
2022-11-25T14:11:09.742Z,2.17
2022-11-25T14:14:25.029Z,2.50
2022-11-25T14:17:42.454Z,1.73
2022-11-25T14:21:08.945Z,2.03
2022-11-25T14:23:46.728Z,2.30
2022-11-25T14:26:49.224Z,2.05
2022-11-25T14:29:38.294Z,2.28
2022-11-25T14:32:25.801Z,2.15
2022-11-25T14:35:08.145Z,2.20
2022-11-25T14:38:08.882Z,2.38
2022-11-25T14:40:54.599Z,1.98
2022-11-25T14:43:25.152Z,1.83
2022-11-25T14:46:15.858Z,1.88
2022-11-25T14:48:44.098Z,1.92
2022-11-25T14:51:18.629Z,1.90
2022-11-25T14:53:49.176Z,2.00
2022-11-25T14:56:25.784Z,2.05
2022-11-25T14:58:55.822Z,2.00
2022-11-25T15:01:34.364Z,3.40
2022-11-25T15:04:06.350Z,2.67
2022-11-25T15:06:37.134Z,2.08
2022-11-25T15:09:22.009Z,2.03
2022-11-25T15:11:57.050Z,2.10
2022-11-25T15:14:34.678Z,1.83
2022-11-25T15:17:26.651Z,1.98
2022-11-25T15:19:57.525Z,1.50
2022-11-25T15:22:24.964Z,1.80
2022-11-25T15:24:56.474Z,1.77
2022-11-25T15:27:28.022Z,1.50
2022-11-25T15:29:57.788Z,2.20
2022-11-25T15:32:31.396Z,1.75
2022-11-25T15:35:01.763Z,1.50
2022-11-25T15:37:29.268Z,1.80
2022-11-25T15:40:44.293Z,1.90
2022-11-25T15:43:31.036Z,1.90
2022-11-25T15:46:04.776Z,1.90
2022-11-25T15:48:45.996Z,1.70
2022-11-25T15:51:41.534Z,2.20
2022-11-25T15:54:29.998Z,2.22
2022-11-25T15:57:05.986Z,1.83
2022-11-25T16:00:16.035Z,1.98
2022-11-25T16:02:42.918Z,1.90
2022-11-25T16:05:12.793Z,2.20
2022-11-25T16:07:50.294Z,2.15
2022-11-25T16:10:45.390Z,1.77
2022-11-25T16:13:29.091Z,1.85
2022-11-25T16:16:12.290Z,2.45
2022-11-25T16:19:19.295Z,1.70
2022-11-25T16:22:00.429Z,2.00
2022-11-25T16:25:00.590Z,2.08
2022-11-25T16:27:30.206Z,1.88
2022-11-25T16:30:19.966Z,2.33
2022-11-25T16:32:46.943Z,1.80
2022-11-25T16:35:20.548Z,2.13
2022-11-25T16:37:49.452Z,2.17
2022-11-25T16:40:18.567Z,1.85
2022-11-25T16:42:50.397Z,1.63
2022-11-25T16:45:25.904Z,2.00
2022-11-25T16:47:52.894Z,1.80
2022-11-25T16:50:21.803Z,1.90
2022-11-25T16:52:49.979Z,1.90
2022-11-25T16:55:18.630Z,2.13
2022-11-25T16:57:46.079Z,2.10
2022-11-25T17:00:17.007Z,1.88
2022-11-25T17:02:45.087Z,2.10
2022-11-25T17:05:26.662Z,2.03
2022-11-25T17:07:53.939Z,2.25
2022-11-25T17:10:21.598Z,2.00
2022-11-25T17:12:49.839Z,2.22
2022-11-25T17:15:21.354Z,2.00
2022-11-25T17:17:49.059Z,1.95
2022-11-25T17:20:21.586Z,2.22
2022-11-25T17:22:48.869Z,2.05
2022-11-25T17:25:16.123Z,2.97
2022-11-25T17:27:46.189Z,2.53
2022-11-25T17:30:27.828Z,2.60
2022-11-25T17:33:14.868Z,2.67
2022-11-25T17:35:42.715Z,2.58
2022-11-25T17:38:19.799Z,2.40
2022-11-25T17:40:47.370Z,2.60
2022-11-25T17:43:17.460Z,2.55
2022-11-25T17:45:46.759Z,2.42
2022-11-25T17:48:18.057Z,2.70
2022-11-25T17:50:46.842Z,2.20
2022-11-25T17:53:13.796Z,2.58
2022-11-25T17:55:42.591Z,2.30
2022-11-25T17:58:14.603Z,1.88
2022-11-25T18:00:45.096Z,2.20
2022-11-25T18:03:18.492Z,2.10
2022-11-25T18:05:46.071Z,2.10
2022-11-25T18:08:12.973Z,2.20
2022-11-25T18:10:40.357Z,1.90
2022-11-25T18:13:07.383Z,2.10
2022-11-25T18:15:34.745Z,1.83
2022-11-25T18:18:06.782Z,2.13
2022-11-25T18:20:34.321Z,1.77
2022-11-25T18:23:01.524Z,1.73
2022-11-25T18:25:33.634Z,1.70
2022-11-25T18:28:01.988Z,1.98
2022-11-25T18:30:36.089Z,1.83
2022-11-25T18:33:05.566Z,1.75
2022-11-25T18:35:36.796Z,1.55
2022-11-25T18:38:04.871Z,1.98
2022-11-25T18:40:33.331Z,1.80
2022-11-25T18:43:02.772Z,1.65
2022-11-25T18:45:35.013Z,1.60
2022-11-25T18:48:02.504Z,1.40
2022-11-25T18:50:31.326Z,1.40
2022-11-25T18:52:58.352Z,1.90
2022-11-25T18:55:27.684Z,1.67
2022-11-25T18:57:54.550Z,1.60
2022-11-25T19:00:33.619Z,1.70
2022-11-25T19:03:01.266Z,1.67
2022-11-25T19:05:33.650Z,1.83
2022-11-25T19:08:01.117Z,2.00
2022-11-25T19:10:33.991Z,1.58
2022-11-25T19:13:12.005Z,1.50
2022-11-25T19:15:39.028Z,1.73
2022-11-25T19:18:07.493Z,1.75
2022-11-25T19:20:34.457Z,1.50
2022-11-25T19:23:27.951Z,1.50
2022-11-25T19:26:01.991Z,1.88
2022-11-25T19:28:30.976Z,1.65
2022-11-25T19:31:03.292Z,1.70
2022-11-25T19:33:43.730Z,1.60
2022-11-25T19:36:27.015Z,1.42
2022-11-25T19:38:54.608Z,1.50
2022-11-25T19:41:21.866Z,1.38
2022-11-25T19:43:48.856Z,1.50
2022-11-25T19:46:46.368Z,1.60
2022-11-25T19:49:19.982Z,1.52
2022-11-25T19:51:48.786Z,1.35
2022-11-25T19:54:18.794Z,1.58
2022-11-25T19:56:46.379Z,1.35
2022-11-25T19:59:13.378Z,1.58
2022-11-25T20:01:44.462Z,1.50
2022-11-25T20:04:20.880Z,1.65
2022-11-25T20:06:49.504Z,1.40
2022-11-25T20:09:16.650Z,1.45
2022-11-25T20:11:43.910Z,1.38
2022-11-25T20:14:12.266Z,1.20
2022-11-25T20:16:41.883Z,1.27
2022-11-25T20:19:17.939Z,1.60
2022-11-25T20:21:46.515Z,1.40
2022-11-25T20:24:19.906Z,1.42
2022-11-25T20:26:48.933Z,1.40
2022-11-25T20:29:24.530Z,1.45
2022-11-25T20:31:56.050Z,1.30
2022-11-25T20:34:28.251Z,1.63
2022-11-25T20:36:55.281Z,1.50
2022-11-25T20:39:22.375Z,1.30
2022-11-25T20:41:52.720Z,1.60
2022-11-25T20:44:20.780Z,1.40
2022-11-25T20:46:48.148Z,1.60
2022-11-25T20:49:25.637Z,1.52
2022-11-25T20:51:53.209Z,1.20
2022-11-25T20:54:20.260Z,1.50
2022-11-25T20:56:47.299Z,1.13
2022-11-25T20:59:23.575Z,1.45
2022-11-25T21:01:51.577Z,1.50
2022-11-25T21:04:18.657Z,1.27
2022-11-25T21:06:46.508Z,1.13
2022-11-25T21:09:21.686Z,1.38
2022-11-25T21:11:49.370Z,1.10
2022-11-25T21:14:19.450Z,1.60
2022-11-25T21:16:47.870Z,1.10
2022-11-25T21:19:15.150Z,1.13
2022-11-25T21:21:45.650Z,1.20
2022-11-25T21:24:26.638Z,1.00
2022-11-25T21:26:54.816Z,1.20
2022-11-25T21:29:22.004Z,1.17
2022-11-25T21:31:48.964Z,1.20
2022-11-25T21:34:16.990Z,1.27
2022-11-25T21:36:47.976Z,1.30
2022-11-25T21:39:30.698Z,1.27
2022-11-25T21:42:03.241Z,1.25
2022-11-25T21:44:39.716Z,1.20
2022-11-25T21:47:19.155Z,1.20
2022-11-25T21:49:46.604Z,1.38
2022-11-25T21:52:14.656Z,1.10
2022-11-25T21:54:41.611Z,1.30
2022-11-25T21:57:27.603Z,1.20
2022-11-25T21:59:54.682Z,1.30
2022-11-25T22:02:25.148Z,1.17
2022-11-25T22:04:52.776Z,1.25
2022-11-25T22:07:19.814Z,1.40
2022-11-25T22:09:47.062Z,1.40
2022-11-25T22:12:35.513Z,1.30
2022-11-25T22:15:21.170Z,1.20
2022-11-25T22:17:49.758Z,1.27
2022-11-25T22:20:26.713Z,1.33
2022-11-25T22:22:54.448Z,1.05
2022-11-25T22:25:24.837Z,1.20
2022-11-25T22:27:52.212Z,1.13
2022-11-25T22:30:22.479Z,1.20
2022-11-25T22:33:00.986Z,1.30
2022-11-25T22:35:28.826Z,1.48
2022-11-25T22:37:55.809Z,0.98
2022-11-25T22:40:23.990Z,1.40
2022-11-25T22:42:52.445Z,1.23
2022-11-25T22:45:34.165Z,1.33
2022-11-25T22:48:05.513Z,1.30
2022-11-25T22:50:34.242Z,1.30
2022-11-25T22:53:02.158Z,1.40
2022-11-25T22:55:32.554Z,1.30
2022-11-25T22:58:01.907Z,1.30
2022-11-25T23:00:34.841Z,1.23
2022-11-25T23:03:06.507Z,1.50
2022-11-25T23:05:36.894Z,1.30
2022-11-25T23:08:21.038Z,1.30
2022-11-25T23:10:49.700Z,1.20
2022-11-25T23:13:20.267Z,1.13
2022-11-25T23:15:55.314Z,1.05
2022-11-25T23:18:51.419Z,1.40
2022-11-25T23:21:23.177Z,1.30
2022-11-25T23:23:50.412Z,1.45
2022-11-25T23:26:17.931Z,1.33
2022-11-25T23:28:44.839Z,1.30
2022-11-25T23:31:16.740Z,1.30
2022-11-25T23:33:47.814Z,1.10
2022-11-25T23:36:28.510Z,1.55
2022-11-25T23:38:59.065Z,1.27
2022-11-25T23:41:32.388Z,1.23
2022-11-25T23:44:20.533Z,1.23
2022-11-25T23:46:48.708Z,1.48
2022-11-25T23:49:41.430Z,1.17
2022-11-25T23:52:24.261Z,1.33
2022-11-25T23:54:53.681Z,1.23
2022-11-25T23:57:27.809Z,1.00
2022-11-25T23:59:54.736Z,1.33
